Time;durP1;ratioP1;P1;durP2;ratioP2;P2;SDS_P1;SDS_P2;PMS_P1;PMS_P2;Temp;Humidity;BMP_temperature;BMP_pressure;BME280_temperature;BME280_humidity;BME280_pressure;Samples;Min_cycle;Max_cycle;Signal;HPM_P1;HPM_P2
2021/06/02 00:00:38;;;;;;;0.60;0.60;;;;;;;9.88;81.67;93487.22;5089208;28;20062;-50
2021/06/02 00:03:04;;;;;;;0.60;0.60;;;;;;;9.90;82.13;93484.66;5090289;28;20059;-50
2021/06/02 00:05:30;;;;;;;0.75;0.30;;;;;;;9.94;nan;93481.53;5090426;28;20043;-50
2021/06/02 00:07:57;;;;;;;0.28;0.28;;;;;;;10.03;81.40;93483.06;5090945;28;20481;-49
2021/06/02 00:10:24;;;;;;;0.40;0.40;;;;;;;10.03;81.11;93478.28;5094556;28;20074;-48
2021/06/02 00:12:51;;;;;;;0.73;0.73;;;;;;;10.02;81.50;93476.81;5094380;28;20035;-48
2021/06/02 00:15:16;;;;;;;0.40;0.40;;;;;;;10.04;80.92;93479.78;5094432;28;20500;-50
2021/06/02 00:17:42;;;;;;;0.80;0.43;;;;;;;10.03;80.91;93489.31;5094123;28;20031;-52
2021/06/02 00:20:09;;;;;;;0.47;0.47;;;;;;;10.08;80.80;93488.44;5094099;28;20028;-49
2021/06/02 00:22:35;;;;;;;0.38;0.30;;;;;;;10.08;81.08;93487.69;5094078;28;20062;-49
2021/06/02 00:25:01;;;;;;;0.30;0.30;;;;;;;10.06;81.03;93496.50;5094228;28;20069;-49
2021/06/02 00:27:29;;;;;;;0.20;0.20;;;;;;;10.12;81.26;93485.34;5093887;28;20090;-50
2021/06/02 00:29:54;;;;;;;1.65;0.55;;;;;;;10.12;81.01;93493.59;5094221;28;20027;-50
2021/06/02 00:32:21;;;;;;;0.93;0.45;;;;;;;9.99;80.53;93486.16;5092896;28;20510;-50
2021/06/02 00:34:49;;;;;;;1.05;0.63;;;;;;;10.00;80.41;93489.66;5089540;28;20016;-49
2021/06/02 00:37:15;;;;;;;0.40;0.30;;;;;;;9.95;81.00;93488.53;5072331;28;20081;-49
2021/06/02 00:39:46;;;;;;;0.20;0.20;;;;;;;9.92;80.85;93484.09;5073683;28;20112;-51
2021/06/02 00:42:11;;;;;;;0.60;0.60;;;;;;;9.96;80.42;93492.03;5073344;28;20032;-50
2021/06/02 00:44:37;;;;;;;0.35;0.35;;;;;;;9.84;80.66;93473.03;5073216;28;20089;-50
2021/06/02 00:47:02;;;;;;;2.72;1.33;;;;;;;9.96;79.79;93473.47;5073055;28;20037;-49
2021/06/02 00:49:28;;;;;;;1.17;1.08;;;;;;;9.99;80.37;93485.44;5073126;28;20025;-50
2021/06/02 00:51:59;;;;;;;0.73;0.73;;;;;;;10.00;80.48;93489.66;5073216;28;20021;-53
2021/06/02 00:54:26;;;;;;;0.80;0.75;;;;;;;9.96;80.81;93492.03;5073139;28;20032;-52
2021/06/02 00:56:54;;;;;;;1.58;1.02;;;;;;;9.88;81.50;93495.50;5073363;28;20024;-49
2021/06/02 00:59:30;;;;;;;0.70;0.50;;;;;;;9.94;82.00;93493.31;5072967;28;20548;-52
2021/06/02 01:01:57;;;;;;;0.40;0.40;;;;;;;10.01;81.44;93497.41;5073357;28;20035;-52
2021/06/02 01:04:24;;;;;;;2.25;0.70;;;;;;;9.80;81.61;93469.91;5072121;28;20029;-52
2021/06/02 01:06:50;;;;;;;0.57;0.57;;;;;;;9.99;81.67;93488.19;5073037;28;20086;-51
2021/06/02 01:09:17;;;;;;;0.70;0.50;;;;;;;10.01;81.45;93489.13;5092750;28;20024;-49
2021/06/02 01:11:43;;;;;;;0.40;0.40;;;;;;;10.00;81.47;93492.44;5093396;28;20024;-52
2021/06/02 01:14:08;;;;;;;0.40;0.40;;;;;;;9.88;82.23;93489.22;5093066;28;20085;-53
2021/06/02 01:16:35;;;;;;;0.52;0.50;;;;;;;9.89;82.45;93493.47;5093358;28;20020;-54
2021/06/02 01:19:02;;;;;;;0.50;0.50;;;;;;;9.86;83.18;93497.31;5092306;28;20565;-51
2021/06/02 01:21:29;;;;;;;2.42;0.82;;;;;;;9.77;83.16;93484.03;5092901;28;20039;-51
2021/06/02 01:23:59;;;;;;;1.70;0.98;;;;;;;9.86;83.53;93497.31;5093241;28;20027;-53
2021/06/02 01:26:27;;;;;;;9.65;4.65;;;;;;;9.87;83.21;93499.53;5093038;28;20024;-49
2021/06/02 01:28:53;;;;;;;10.48;5.03;;;;;;;9.83;83.51;93501.19;5092761;28;20070;-53
2021/06/02 01:31:46;;;;;;;9.80;4.25;;;;;;;9.83;83.33;93495.66;5092964;28;20399;-52
2021/06/02 01:34:33;;;;;;;8.82;3.88;;;;;;;9.82;83.72;93494.16;5092671;28;20522;-55
2021/06/02 01:37:16;;;;;;;5.88;3.60;;;;;;;9.78;83.57;93493.78;5072584;28;20637;-57
2021/06/02 01:39:51;;;;;;;5.55;3.20;;;;;;;9.77;83.60;93497.81;5072612;28;20111;-53
2021/06/02 01:42:24;;;;;;;4.10;2.03;;;;;;;9.87;83.27;93507.06;5072538;28;20107;-52
2021/06/02 01:45:21;;;;;;;1.23;1.10;;;;;;;9.85;83.10;93496.56;5087784;28;20118;-55
2021/06/02 01:48:11;;;;;;;4.00;2.42;;;;;;;9.84;83.56;93499.88;5070835;28;20044;-54
2021/06/02 01:50:48;;;;;;;3.58;2.45;;;;;;;9.85;83.89;93509.63;5070914;28;20115;-54
2021/06/02 01:53:44;;;;;;;11.02;4.25;;;;;;;9.72;83.87;93510.47;5072053;28;20599;-53
2021/06/02 01:56:51;;;;;;;1.70;1.60;;;;;;;9.82;83.59;93519.72;5072246;28;20043;-51
2021/06/02 01:59:51;;;;;;;0.50;0.50;;;;;;;9.72;83.88;93523.53;5066072;28;20067;-51
2021/06/02 02:02:51;;;;;;;25.35;2.05;;;;;;;9.75;84.59;93523.16;5087555;28;20059;-50
2021/06/02 02:05:31;;;;;;;1.00;0.90;;;;;;;9.82;84.71;93508.69;5071848;28;20024;-48
2021/06/02 02:08:28;;;;;;;0.30;0.30;;;;;;;9.79;84.31;93512.53;5095986;28;20032;-50
2021/06/02 02:11:18;;;;;;;0.20;0.20;;;;;;;9.76;84.15;93515.66;5091920;28;20024;-50
2021/06/02 02:14:08;;;;;;;0.25;0.25;;;;;;;9.74;84.12;93520.97;5092188;28;20031;-47
2021/06/02 02:17:02;;;;;;;0.20;0.20;;;;;;;9.81;83.40;93515.47;5091857;28;20028;-49
2021/06/02 02:20:05;;;;;;;0.28;0.28;;;;;;;9.81;83.23;93526.50;5090805;28;20031;-51
2021/06/02 02:22:33;;;;;;;0.20;0.20;;;;;;;9.84;83.19;93522.69;5092016;28;20020;-49
2021/06/02 02:25:09;;;;;;;0.25;0.25;;;;;;;9.80;82.83;93521.53;5091520;28;20518;-50
2021/06/02 02:28:12;;;;;;;0.20;0.20;;;;;;;9.83;82.36;93528.75;5090442;28;20020;-48
2021/06/02 02:31:02;;;;;;;0.20;0.20;;;;;;;9.80;82.09;93527.81;5090629;28;20115;-49
2021/06/02 02:33:53;;;;;;;0.20;0.20;;;;;;;9.82;82.37;93527.25;5091820;28;20400;-49
2021/06/02 02:37:14;;;;;;;0.30;0.30;;;;;;;9.82;81.91;93530.75;5073284;28;20385;-49
2021/06/02 02:40:00;;;;;;;0.20;0.20;;;;;;;9.83;81.72;93523.94;5054357;28;20032;-48
2021/06/02 02:42:50;;;;;;;0.13;0.13;;;;;;;9.70;80.87;93521.28;5069949;28;20107;-47
2021/06/02 02:45:18;;;;;;;0.20;0.20;;;;;;;9.71;80.84;93519.28;5071145;28;20016;-49
2021/06/02 02:48:00;;;;;;;0.23;0.23;;;;;;;9.80;80.39;93518.78;5070832;28;20052;-49
2021/06/02 02:50:44;;;;;;;0.25;0.20;;;;;;;9.73;80.76;93513.97;5070064;28;20059;-51
2021/06/02 02:53:14;;;;;;;0.10;0.10;;;;;;;9.73;80.61;93513.97;5070914;28;20031;-53
2021/06/02 02:55:40;;;;;;;0.20;0.20;;;;;;;9.60;80.23;93514.06;5069623;28;20039;-53
2021/06/02 02:58:16;;;;;;;0.20;0.20;;;;;;;9.76;80.74;93529.44;5070840;28;20025;-52
2021/06/02 03:00:44;;;;;;;0.30;0.30;;;;;;;9.71;80.84;93536.56;5069480;28;20063;-53
2021/06/02 03:03:26;;;;;;;0.20;0.20;;;;;;;9.78;80.54;93540.66;5070968;28;20385;-50
2021/06/02 03:06:13;;;;;;;0.30;0.30;;;;;;;9.78;80.42;93548.94;5069684;28;20388;-54
2021/06/02 03:09:01;;;;;;;0.20;0.20;;;;;;;9.66;80.88;93540.19;5084750;28;20035;-52
2021/06/02 03:11:37;;;;;;;0.30;0.30;;;;;;;9.64;81.76;93544.75;5089830;28;20020;-51
2021/06/02 03:14:31;;;;;;;7.38;1.63;;;;;;;9.59;81.37;93549.16;5089933;28;20077;-51
2021/06/02 03:16:59;;;;;;;0.40;0.40;;;;;;;9.72;81.72;93559.38;5075424;28;20043;-50
2021/06/02 03:19:45;;;;;;;0.25;0.25;;;;;;;9.81;81.40;93558.88;5089394;28;20490;-52
2021/06/02 03:22:21;;;;;;;5.03;0.85;;;;;;;9.88;81.25;93547.16;5072627;28;20117;-47
2021/06/02 03:25:08;;;;;;;1.65;0.63;;;;;;;9.84;81.35;93558.53;5090555;28;20031;-49
2021/06/02 03:27:40;;;;;;;0.40;0.40;;;;;;;9.90;80.77;93561.13;5090535;28;20415;-47
2021/06/02 03:30:21;;;;;;;0.30;0.30;;;;;;;9.89;80.90;93567.94;5089759;28;20027;-51
2021/06/02 03:33:00;;;;;;;0.63;0.40;;;;;;;9.93;80.75;93560.81;5089574;28;20032;-49
2021/06/02 03:35:34;;;;;;;1.15;0.68;;;;;;;9.86;81.03;93560.75;5079925;28;20056;-50
2021/06/02 03:38:11;;;;;;;0.47;0.47;;;;;;;9.85;81.21;93560.00;5070239;28;20043;-48
2021/06/02 03:41:01;;;;;;;0.50;0.50;;;;;;;9.87;81.17;93559.47;5070563;28;20082;-48
2021/06/02 03:43:43;;;;;;;0.77;0.65;;;;;;;9.92;81.23;93559.31;5070381;28;20036;-49
2021/06/02 03:46:38;;;;;;;0.57;0.57;;;;;;;9.99;80.32;93568.16;5078745;28;20051;-49
2021/06/02 03:49:21;;;;;;;0.38;0.38;;;;;;;10.00;79.74;93558.63;5088315;28;20069;-53
2021/06/02 03:52:12;;;;;;;0.20;0.20;;;;;;;10.04;79.17;93570.06;5089026;28;20601;-51
2021/06/02 03:54:51;;;;;;;0.25;0.25;;;;;;;10.02;79.14;93576.13;5066930;28;20109;-49
2021/06/02 03:57:34;;;;;;;0.40;0.40;;;;;;;9.99;79.77;93579.94;5088268;28;20043;-52
2021/06/02 04:00:03;;;;;;;0.20;0.20;;;;;;;10.04;79.73;93587.34;5087721;28;20024;-48
2021/06/02 04:02:59;;;;;;;0.85;0.63;;;;;;;10.08;80.02;93589.75;5088424;28;20056;-53
2021/06/02 04:05:40;;;;;;;0.50;0.50;;;;;;;10.13;78.39;93589.66;5090530;28;20032;-49
2021/06/02 04:08:27;;;;;;;3.63;1.08;;;;;;;9.94;79.66;93589.84;5082430;28;20039;-48
2021/06/02 04:11:11;;;;;;;3.90;1.83;;;;;;;10.11;79.76;93597.72;5069929;28;20029;-50
2021/06/02 04:13:56;;;;;;;7.60;1.40;;;;;;;10.14;79.61;93595.88;5069913;28;20111;-50
2021/06/02 04:16:40;;;;;;;2.47;1.27;;;;;;;10.18;80.06;93601.81;5069891;28;20025;-49
2021/06/02 04:19:09;;;;;;;3.20;1.90;;;;;;;10.17;80.28;93600.31;5070284;28;20039;-48
2021/06/02 04:21:36;;;;;;;;;;;;;;;10.16;79.82;93602.34;5070664;28;20099;-49
2021/06/02 04:24:06;;;;;;;3.33;1.90;;;;;;;10.15;79.72;93597.38;5069854;28;19908;-50
2021/06/02 04:26:34;;;;;;;0.93;0.77;;;;;;;10.25;79.19;93601.84;5069987;28;20431;-48
2021/06/02 04:29:03;;;;;;;0.47;0.47;;;;;;;10.36;78.71;93596.03;5070011;28;20056;-49
2021/06/02 04:31:29;;;;;;;1.80;0.70;;;;;;;10.45;78.02;93598.28;5070010;28;20020;-49
2021/06/02 04:34:00;;;;;;;2.25;1.27;;;;;;;10.52;77.75;93605.13;5070047;28;20021;-48
2021/06/02 04:36:26;;;;;;;0.73;0.73;;;;;;;10.49;77.92;93584.13;5088157;28;20091;-50
2021/06/02 04:38:56;;;;;;;0.50;0.50;;;;;;;10.72;77.77;93611.84;5089744;28;20480;-51
2021/06/02 04:41:24;;;;;;;2.25;0.93;;;;;;;10.86;77.17;93610.44;5090118;28;20039;-50
2021/06/02 04:43:51;;;;;;;1.52;1.17;;;;;;;11.00;77.27;93604.22;5090076;28;20107;-51
2021/06/02 04:46:19;;;;;;;1.17;1.08;;;;;;;11.06;77.35;93604.81;5089678;28;20048;-50
2021/06/02 04:48:44;;;;;;;1.33;1.23;;;;;;;11.17;76.69;93609.25;5089397;28;20028;-50
2021/06/02 04:51:31;;;;;;;0.68;0.60;;;;;;;11.24;75.89;93612.03;5090013;28;20023;-52
2021/06/02 04:54:04;;;;;;;0.98;0.98;;;;;;;11.32;75.06;93610.03;5091185;28;20110;-51
2021/06/02 04:57:14;;;;;;;0.65;0.50;;;;;;;11.40;75.20;93619.06;5092200;28;20066;-50
2021/06/02 05:00:04;;;;;;;0.90;0.80;;;;;;;11.57;74.85;93617.78;5092913;28;20028;-51
2021/06/02 05:03:12;;;;;;;0.80;0.63;;;;;;;11.68;73.57;93618.22;5093214;28;20024;-49
2021/06/02 05:05:51;;;;;;;1.20;0.82;;;;;;;11.62;73.80;93614.88;5093149;28;20089;-50
2021/06/02 05:08:38;;;;;;;0.60;0.60;;;;;;;11.63;73.83;93618.38;5092886;28;20491;-52
2021/06/02 05:11:41;;;;;;;2.08;0.50;;;;;;;11.58;74.56;93622.03;5093356;28;20046;-48
2021/06/02 05:14:24;;;;;;;0.60;0.60;;;;;;;11.57;75.28;93618.53;5093405;28;20631;-49
2021/06/02 05:16:50;;;;;;;0.52;0.47;;;;;;;11.56;74.88;93624.63;5093265;28;20031;-51
2021/06/02 05:22:17;;;;;;;0.98;0.57;;;;;;;11.54;75.35;93633.47;5092993;28;20059;-48
2021/06/02 05:25:20;;;;;;;5.82;2.88;;;;;;;11.58;75.80;93635.88;5092781;28;20483;-51
2021/06/02 05:28:23;;;;;;;1.65;1.20;;;;;;;11.66;75.78;93633.84;5093036;28;20032;-51
2021/06/02 05:30:51;;;;;;;1.52;1.25;;;;;;;11.73;75.45;93638.69;5092712;28;20404;-50
2021/06/02 05:33:35;;;;;;;4.70;1.73;;;;;;;11.84;75.64;93646.63;5092669;28;20131;-50
2021/06/02 05:36:22;;;;;;;0.90;0.77;;;;;;;11.89;75.47;93643.66;5078168;28;20024;-48
2021/06/02 05:39:12;;;;;;;1.05;0.95;;;;;;;11.86;74.81;93649.56;5072230;28;20035;-47
2021/06/02 05:41:57;;;;;;;1.42;1.00;;;;;;;11.95;74.44;93641.44;5072667;28;20458;-50
2021/06/02 05:44:44;;;;;;;0.55;0.55;;;;;;;11.95;74.40;93641.44;5072194;28;20028;-49
2021/06/02 05:47:24;;;;;;;0.50;0.50;;;;;;;12.06;74.73;93641.09;5071929;28;20044;-49
2021/06/02 05:50:14;;;;;;;1.73;1.55;;;;;;;12.15;74.66;93648.09;5072504;28;20039;-48
2021/06/02 05:53:10;;;;;;;1.17;0.82;;;;;;;12.14;73.79;93647.38;5072437;28;20103;-49
2021/06/02 05:55:43;;;;;;;0.82;0.82;;;;;;;12.16;73.76;93647.56;5072079;28;20488;-47
2021/06/02 05:58:36;;;;;;;1.00;0.90;;;;;;;12.35;73.51;93643.66;5072337;28;20025;-51
2021/06/02 06:01:16;;;;;;;1.80;1.40;;;;;;;12.48;73.24;93649.00;5082821;28;20119;-48
2021/06/02 06:03:53;;;;;;;1.55;1.38;;;;;;;12.60;72.46;93645.28;5092130;28;20116;-50
2021/06/02 06:06:22;;;;;;;1.70;1.60;;;;;;;12.66;72.56;93647.84;5092051;28;20032;-47
2021/06/02 06:09:05;;;;;;;1.25;1.15;;;;;;;12.85;71.92;93653.72;5091898;28;20043;-50
2021/06/02 06:11:53;;;;;;;1.05;0.98;;;;;;;12.87;72.44;93651.84;5091938;28;20032;-49
2021/06/02 06:14:49;;;;;;;1.08;0.95;;;;;;;13.13;71.99;93658.25;5090721;28;20060;-48
2021/06/02 06:17:47;;;;;;;2.22;0.90;;;;;;;13.28;71.23;93658.94;5091837;28;20019;-49
2021/06/02 06:20:49;;;;;;;1.83;1.60;;;;;;;13.39;70.18;93655.75;5091769;28;20028;-49
2021/06/02 06:23:47;;;;;;;5.07;2.88;;;;;;;13.71;69.70;93659.84;5091971;28;20050;-48
2021/06/02 06:26:30;;;;;;;2.08;1.23;;;;;;;13.89;68.56;93658.59;5083647;28;20036;-49
2021/06/02 06:29:16;;;;;;;2.28;1.00;;;;;;;14.13;68.28;93657.88;5091376;28;20554;-49
2021/06/02 06:31:44;;;;;;;1.50;1.33;;;;;;;14.33;67.11;93654.03;5091841;28;20055;-49
2021/06/02 06:34:13;;;;;;;3.88;1.17;;;;;;;14.30;64.69;93655.91;5090626;28;20032;-50
2021/06/02 06:36:40;;;;;;;12.57;1.00;;;;;;;14.50;64.22;93651.28;5070193;28;20488;-49
2021/06/02 06:39:08;;;;;;;1.40;1.30;;;;;;;14.67;65.16;93659.66;5071370;28;20021;-53
2021/06/02 06:41:34;;;;;;;1.40;1.30;;;;;;;14.55;65.30;93653.09;5071134;28;20068;-50
2021/06/02 06:44:01;;;;;;;0.77;0.77;;;;;;;14.55;65.70;93663.47;5070214;28;20056;-51
2021/06/02 06:46:28;;;;;;;1.88;1.10;;;;;;;14.57;66.25;93660.88;5052948;28;20569;-48
2021/06/02 06:48:55;;;;;;;1.20;1.10;;;;;;;14.82;66.01;93662.28;5070026;28;20043;-48
2021/06/02 06:51:22;;;;;;;1.42;0.80;;;;;;;15.01;65.72;93656.88;5069724;28;20115;-47
2021/06/02 06:53:52;;;;;;;1.55;1.15;;;;;;;14.73;64.37;93662.91;5069732;28;20033;-49
2021/06/02 06:56:18;;;;;;;2.75;1.30;;;;;;;14.19;65.47;93658.38;5073379;28;20054;-49
2021/06/02 06:58:44;;;;;;;4.22;1.70;;;;;;;14.23;67.08;93665.00;5090131;28;20024;-50
2021/06/02 07:01:12;;;;;;;1.13;1.02;;;;;;;14.26;67.03;93668.69;5089313;28;20080;-48
2021/06/02 07:03:39;;;;;;;2.50;2.20;;;;;;;13.85;67.16;93663.81;5089324;28;20042;-48
2021/06/02 07:06:05;;;;;;;7.18;1.55;;;;;;;13.62;68.07;93661.19;5089713;28;20077;-52
2021/06/02 07:08:30;;;;;;;1.00;1.00;;;;;;;13.45;69.23;93667.34;5089684;28;20027;-48
2021/06/02 07:11:05;;;;;;;1.48;1.38;;;;;;;13.45;69.50;93664.59;5089711;28;20498;-48
2021/06/02 07:13:31;;;;;;;2.40;2.00;;;;;;;13.51;68.88;93664.38;5089765;28;20027;-51
2021/06/02 07:16:00;;;;;;;1.67;1.58;;;;;;;13.55;68.61;93665.47;5089785;28;20024;-48
2021/06/02 07:18:25;;;;;;;1.85;1.73;;;;;;;13.62;68.44;93670.22;5089003;28;20024;-48
2021/06/02 07:20:52;;;;;;;1.88;1.77;;;;;;;13.81;68.29;93674.56;5089410;28;20396;-47
2021/06/02 07:23:18;;;;;;;4.22;1.50;;;;;;;13.97;67.01;93667.63;5089492;28;20558;-49
2021/06/02 07:25:44;;;;;;;2.13;1.77;;;;;;;14.28;67.34;93671.63;5089829;28;20110;-50
2021/06/02 07:28:11;;;;;;;1.98;1.67;;;;;;;14.91;64.79;93664.41;5090556;28;20028;-48
2021/06/02 07:30:37;;;;;;;1.95;1.70;;;;;;;15.22;63.64;93659.25;5089733;28;20509;-49
2021/06/02 07:33:04;;;;;;;2.85;2.20;;;;;;;14.87;62.98;93664.09;5090435;28;20035;-50
2021/06/02 07:35:30;;;;;;;2.65;2.22;;;;;;;14.91;64.39;93666.44;5090715;28;20028;-50
2021/06/02 07:37:56;;;;;;;2.03;1.58;;;;;;;14.90;64.55;93678.91;5090788;28;20028;-48
2021/06/02 07:40:21;;;;;;;2.33;1.95;;;;;;;14.64;64.56;93660.06;5090395;28;20028;-50
2021/06/02 07:42:47;;;;;;;2.15;1.95;;;;;;;14.53;65.29;93669.59;5090657;28;20115;-52
2021/06/02 07:45:13;;;;;;;4.10;2.00;;;;;;;14.91;65.31;93680.34;5090330;28;20020;-47
2021/06/02 07:47:39;;;;;;;3.15;2.00;;;;;;;15.04;63.33;93678.00;5090063;28;20500;-50
2021/06/02 07:50:05;;;;;;;3.92;1.85;;;;;;;15.06;63.39;93675.38;5090311;28;20024;-48
2021/06/02 07:52:31;;;;;;;2.85;2.00;;;;;;;14.67;64.62;93684.66;5087796;28;20061;-50
2021/06/02 07:54:56;;;;;;;2.97;2.22;;;;;;;14.39;64.81;93683.06;5070092;28;20066;-48
2021/06/02 07:57:22;;;;;;;1.63;1.52;;;;;;;13.93;66.67;93695.00;5070319;28;20025;-49
2021/06/02 07:59:47;;;;;;;2.88;2.28;;;;;;;13.72;67.64;93695.34;5070386;28;20023;-47
2021/06/02 08:02:13;;;;;;;1.65;1.33;;;;;;;13.50;67.08;93688.59;5070051;28;20055;-50
2021/06/02 08:04:38;;;;;;;2.88;2.40;;;;;;;13.19;69.40;93689.31;5070048;28;20025;-50
2021/06/02 08:07:07;;;;;;;3.13;2.20;;;;;;;13.26;69.78;93686.50;5071073;28;20032;-48
2021/06/02 08:09:33;;;;;;;;;;;;;;;13.60;68.22;93692.25;5090634;28;20035;-48
2021/06/02 08:11:58;;;;;;;5.57;1.95;;;;;;;14.09;66.97;93694.38;5090427;28;19908;-50
2021/06/02 08:14:23;;;;;;;2.92;1.58;;;;;;;14.57;65.53;93692.16;5090038;28;20027;-50
2021/06/02 08:16:49;;;;;;;1.52;1.20;;;;;;;14.71;64.80;93687.78;5088959;28;20031;-51
2021/06/02 08:19:15;;;;;;;2.15;1.58;;;;;;;14.63;64.73;93691.94;5090202;28;20051;-51
2021/06/02 08:21:40;;;;;;;7.15;2.00;;;;;;;14.51;64.38;93688.88;5090071;28;20113;-50
2021/06/02 08:24:06;;;;;;;3.90;2.08;;;;;;;14.35;64.30;93687.53;5090288;28;20031;-48
2021/06/02 08:26:36;;;;;;;4.13;1.92;;;;;;;14.02;65.91;93688.84;5090167;28;20439;-50
2021/06/02 08:29:02;;;;;;;3.00;2.00;;;;;;;13.80;67.27;93690.47;5091511;28;20024;-51
2021/06/02 08:31:28;;;;;;;2.72;2.45;;;;;;;13.69;68.75;93694.41;5094200;28;20028;-47
2021/06/02 08:33:53;;;;;;;2.70;2.25;;;;;;;13.64;67.92;93702.97;5094119;28;20522;-49
2021/06/02 08:36:19;;;;;;;3.20;2.95;;;;;;;13.44;69.20;93690.84;5076504;28;20021;-50
2021/06/02 08:38:44;;;;;;;1.80;1.70;;;;;;;13.33;70.80;93691.28;5073830;28;20032;-49
2021/06/02 08:41:09;;;;;;;4.00;2.10;;;;;;;13.16;71.08;93698.72;5073649;28;20031;-50
2021/06/02 08:43:35;;;;;;;4.55;2.35;;;;;;;12.92;72.24;93695.25;5073678;28;20024;-48
2021/06/02 08:46:01;;;;;;;3.90;2.50;;;;;;;12.79;74.08;93703.03;5073238;28;20051;-49
2021/06/02 08:48:27;;;;;;;3.20;2.33;;;;;;;12.85;74.64;93692.50;5073249;28;20070;-50
2021/06/02 08:50:53;;;;;;;2.70;2.35;;;;;;;13.12;74.40;93692.84;5093089;28;20051;-49
2021/06/02 08:53:19;;;;;;;4.03;2.25;;;;;;;13.43;72.74;93688.63;5093776;28;20032;-49
2021/06/02 08:55:46;;;;;;;2.75;2.05;;;;;;;13.97;72.58;93696.09;5093776;28;20556;-48
2021/06/02 08:58:19;;;;;;;3.92;3.13;;;;;;;14.79;70.59;93696.06;5093493;28;20043;-51
2021/06/02 09:00:45;;;;;;;11.65;4.40;;;;;;;16.02;67.32;93692.00;5093303;28;20024;-51
2021/06/02 09:03:10;;;;;;;2.92;1.63;;;;;;;17.64;59.70;93689.59;5093260;28;20089;-48
2021/06/02 09:05:35;;;;;;;2.10;1.90;;;;;;;19.68;53.30;93684.66;5093495;28;20036;-50
2021/06/02 09:08:01;;;;;;;3.92;1.77;;;;;;;21.77;49.06;93674.16;5092804;28;20110;-49
2021/06/02 09:10:27;;;;;;;3.00;2.58;;;;;;;22.68;45.81;93676.34;5093431;28;20070;-49
2021/06/02 09:12:58;;;;;;;3.47;2.03;;;;;;;23.43;44.00;93675.34;5092990;28;20076;-48
2021/06/02 09:15:24;;;;;;;2.40;1.80;;;;;;;24.38;41.42;93680.69;5093389;28;20051;-50
2021/06/02 09:17:57;;;;;;;3.20;2.00;;;;;;;23.59;39.21;93685.31;5093330;28;20087;-49
2021/06/02 09:20:41;;;;;;;2.38;1.88;;;;;;;22.43;42.60;93682.75;5093328;28;20157;-52
2021/06/02 09:23:39;;;;;;;2.70;2.50;;;;;;;21.45;45.48;93673.06;5093199;28;20118;-47
2021/06/02 09:26:11;;;;;;;1.80;1.70;;;;;;;20.50;46.07;93677.91;5092452;28;20036;-48
2021/06/02 09:28:59;;;;;;;2.00;1.80;;;;;;;20.07;48.83;93679.41;5092783;28;20058;-49
2021/06/02 09:31:32;;;;;;;3.30;2.20;;;;;;;19.65;48.91;93688.66;5093114;28;20101;-47
2021/06/02 09:34:14;;;;;;;2.13;1.95;;;;;;;19.22;50.69;93684.41;5092752;28;20586;-49
2021/06/02 09:36:41;;;;;;;1.88;1.77;;;;;;;18.74;50.88;93681.91;5092963;28;20095;-48
2021/06/02 09:39:09;;;;;;;1.98;1.60;;;;;;;18.32;52.55;93676.91;5092433;28;20028;-51
2021/06/02 09:41:45;;;;;;;2.88;1.90;;;;;;;17.98;53.30;93686.44;5092489;28;20020;-49
2021/06/02 09:44:14;;;;;;;2.60;2.08;;;;;;;17.80;54.90;93684.44;5092892;28;20024;-49
2021/06/02 09:46:59;;;;;;;4.03;3.17;;;;;;;17.96;55.76;93677.19;5075994;28;20048;-50
2021/06/02 09:49:25;;;;;;;3.65;2.00;;;;;;;18.27;53.80;93666.81;5072082;28;20029;-49
2021/06/02 09:51:52;;;;;;;2.72;2.20;;;;;;;18.51;53.41;93673.34;5072469;28;20024;-48
2021/06/02 09:54:21;;;;;;;2.70;2.47;;;;;;;18.59;52.52;93674.63;5072090;28;20107;-48
2021/06/02 09:56:46;;;;;;;3.20;2.17;;;;;;;18.42;53.18;93674.09;5072036;28;20020;-51
2021/06/02 09:59:13;;;;;;;3.55;2.65;;;;;;;18.57;54.42;93673.75;5071996;28;20032;-49
2021/06/02 10:01:58;;;;;;;4.97;3.80;;;;;;;18.16;54.67;93665.38;5071967;28;20032;-49
2021/06/02 10:04:35;;;;;;;17.73;5.47;;;;;;;18.28;54.98;93671.06;5072152;28;20023;-49
2021/06/02 10:07:03;;;;;;;2.75;2.40;;;;;;;18.48;54.13;93672.47;5072549;28;20520;-50
2021/06/02 10:09:33;;;;;;;1.90;1.65;;;;;;;18.45;53.44;93670.84;5092029;28;20115;-51
2021/06/02 10:12:10;;;;;;;1.67;1.58;;;;;;;18.45;53.74;93667.34;5092265;28;20024;-50
2021/06/02 10:14:56;;;;;;;1.63;1.40;;;;;;;18.33;53.63;93661.63;5091961;28;20506;-50
2021/06/02 10:17:30;;;;;;;1.95;1.55;;;;;;;18.36;51.43;93652.06;5092148;28;20470;-49
2021/06/02 10:20:04;;;;;;;1.40;1.08;;;;;;;18.84;52.74;93663.03;5092080;28;20032;-52
2021/06/02 10:22:31;;;;;;;1.88;1.73;;;;;;;20.67;49.57;93654.38;5092123;28;20081;-49
2021/06/02 10:24:59;;;;;;;1.25;1.15;;;;;;;22.27;45.69;93651.66;5091925;28;20028;-46
2021/06/02 10:27:24;;;;;;;1.85;1.33;;;;;;;23.47;43.88;93653.00;5091887;28;20031;-49
2021/06/02 10:29:51;;;;;;;2.20;1.27;;;;;;;23.99;40.13;93645.00;5091640;28;20145;-50
2021/06/02 10:32:18;;;;;;;1.58;1.48;;;;;;;24.75;38.80;93644.31;5091573;28;20031;-52
2021/06/02 10:34:44;;;;;;;2.10;1.25;;;;;;;25.67;38.43;93644.75;5091740;28;20027;-49
2021/06/02 10:37:14;;;;;;;2.70;2.33;;;;;;;26.31;35.21;93641.69;5090072;28;20472;-46
2021/06/02 10:39:41;;;;;;;2.55;1.60;;;;;;;25.97;34.67;93643.13;5091850;28;20035;-50
2021/06/02 10:42:29;;;;;;;1.40;1.25;;;;;;;25.04;35.36;93643.44;5080711;28;20224;-47
2021/06/02 10:45:01;;;;;;;2.45;1.02;;;;;;;23.97;36.77;93644.88;5070989;28;20128;-50
2021/06/02 10:47:27;;;;;;;2.85;1.52;;;;;;;22.83;39.58;93642.69;5069715;28;20455;-47
2021/06/02 10:49:53;;;;;;;1.38;1.25;;;;;;;21.52;41.37;93651.66;5071279;28;20024;-48
2021/06/02 10:52:39;;;;;;;2.28;2.05;;;;;;;20.29;43.77;93647.19;5070284;28;20025;-47
2021/06/02 10:55:43;;;;;;;1.75;1.65;;;;;;;19.27;48.03;93666.56;5070794;28;20500;-47
2021/06/02 10:58:52;;;;;;;2.17;2.00;;;;;;;18.92;49.97;93674.75;5069618;28;20482;-47
2021/06/02 11:01:20;;;;;;;3.10;2.03;;;;;;;18.36;52.29;93677.22;5080240;28;20045;-46
2021/06/02 11:04:08;;;;;;;3.67;2.42;;;;;;;17.95;53.24;93665.28;5070754;28;20028;-47
2021/06/02 11:06:36;;;;;;;2.22;1.85;;;;;;;17.50;53.25;93652.28;5070597;28;20506;-47
2021/06/02 11:09:01;;;;;;;4.93;2.80;;;;;;;17.31;54.10;93674.59;5088177;28;20028;-47
2021/06/02 11:11:29;;;;;;;2.65;2.17;;;;;;;17.04;55.93;93680.34;5091176;28;20032;-47
2021/06/02 12:04:25;;;;;;;8.32;1.77;;;;;;;15.91;65.40;93694.00;5073197;28;20049;-51
2021/06/02 12:06:50;;;;;;;2.00;1.70;;;;;;;16.22;64.42;93694.28;5094562;28;20036;-50
2021/06/02 12:09:16;;;;;;;2.80;1.88;;;;;;;16.54;64.20;93694.03;5094213;28;20078;-46
2021/06/02 12:11:42;;;;;;;2.10;1.90;;;;;;;16.83;63.30;93687.78;5094655;28;20526;-48
2021/06/02 12:14:20;;;;;;;2.20;1.50;;;;;;;17.01;62.11;93686.31;5093345;28;20035;-46
2021/06/02 12:16:45;;;;;;;10.50;2.72;;;;;;;17.13;60.50;93681.66;5093491;28;20019;-47
2021/06/02 12:19:11;;;;;;;1.98;1.80;;;;;;;17.21;59.82;93685.78;5088293;28;20033;-47
2021/06/02 12:21:36;;;;;;;4.15;1.48;;;;;;;17.49;59.27;93681.50;5089598;28;20028;-49
2021/06/02 12:24:02;;;;;;;2.03;1.50;;;;;;;17.62;57.91;93686.66;5091049;28;20024;-46
2021/06/02 12:26:29;;;;;;;6.18;2.47;;;;;;;17.74;58.34;93689.56;5091689;28;20047;-46
2021/06/02 12:28:56;;;;;;;11.10;2.60;;;;;;;17.82;58.81;93690.88;5090913;28;20035;-46
2021/06/02 12:31:35;;;;;;;2.97;1.95;;;;;;;17.95;56.54;93684.13;5090267;28;20080;-49
2021/06/02 12:34:10;;;;;;;8.68;4.32;;;;;;;18.02;54.14;93694.38;5088081;28;20023;-48
2021/06/02 12:36:41;;;;;;;10.85;4.10;;;;;;;18.04;53.88;93692.47;5090636;28;20043;-46
2021/06/02 12:39:10;;;;;;;3.22;1.85;;;;;;;17.92;52.88;93685.28;5090399;28;20032;-46
2021/06/02 12:41:36;;;;;;;4.00;2.57;;;;;;;17.80;54.18;93685.16;5090411;28;20036;-46
2021/06/02 12:44:04;;;;;;;3.53;1.70;;;;;;;17.69;54.36;93688.56;5090249;28;20445;-44
2021/06/02 12:46:29;;;;;;;4.82;1.98;;;;;;;17.66;54.87;93680.63;5090068;28;20472;-46
2021/06/02 12:48:55;;;;;;;9.80;4.65;;;;;;;17.62;54.69;93691.50;5090133;28;20070;-50
2021/06/02 12:51:23;;;;;;;12.50;3.63;;;;;;;17.43;53.52;93689.44;5090254;28;20027;-46
2021/06/02 12:53:49;;;;;;;10.00;2.63;;;;;;;17.30;53.62;93696.19;5090572;28;20093;-47
2021/06/02 12:56:15;;;;;;;3.90;3.05;;;;;;;17.11;54.60;93695.44;5089719;28;20024;-47
2021/06/02 12:58:42;;;;;;;6.70;3.38;;;;;;;17.09;55.80;93687.66;5089950;28;20103;-47
2021/06/02 13:01:12;;;;;;;3.80;2.40;;;;;;;16.95;56.03;93692.22;5090032;28;20035;-48
2021/06/02 13:03:46;;;;;;;7.82;2.45;;;;;;;17.00;56.45;93693.25;5087520;28;20427;-47